sensor_id;sensor_type;location;lat;lon;timestamp;pressure;altitude;pressure_sealevel;temperature;humidity
74675;BME280;63200;48.810;12.352;2023-02-15T00:01:32;98965.84;;;-2.09;81.35
74675;BME280;63200;48.810;12.352;2023-02-15T00:03:58;99029.91;;;-1.78;81.02
74675;BME280;63200;48.810;12.352;2023-02-15T00:06:23;99030.72;;;-1.77;80.82
74675;BME280;63200;48.810;12.352;2023-02-15T00:08:49;99032.22;;;-1.83;80.78
74675;BME280;63200;48.810;12.352;2023-02-15T00:11:16;99023.91;;;-1.96;81.66
74675;BME280;63200;48.810;12.352;2023-02-15T00:14:03;98983.16;;;-2.05;82.25
74675;BME280;63200;48.810;12.352;2023-02-15T00:16:29;98990.13;;;-2.12;81.66
74675;BME280;63200;48.810;12.352;2023-02-15T00:18:54;99005.44;;;-1.98;82.44
74675;BME280;63200;48.810;12.352;2023-02-15T00:21:20;98977.81;;;-2.05;82.18
74675;BME280;63200;48.810;12.352;2023-02-15T00:23:45;98992.66;;;-1.94;82.77
74675;BME280;63200;48.810;12.352;2023-02-15T00:26:11;98970.84;;;-2.06;82.72
74675;BME280;63200;48.810;12.352;2023-02-15T00:28:37;99003.94;;;-1.84;82.70
74675;BME280;63200;48.810;12.352;2023-02-15T00:31:10;98988.31;;;-1.95;82.35
74675;BME280;63200;48.810;12.352;2023-02-15T00:33:36;98971.66;;;-1.73;81.74
74675;BME280;63200;48.810;12.352;2023-02-15T00:36:04;99012.75;;;-1.67;81.29
74675;BME280;63200;48.810;12.352;2023-02-15T00:38:30;99001.94;;;-1.82;81.66
74675;BME280;63200;48.810;12.352;2023-02-15T00:40:58;99001.78;;;-1.80;82.19
74675;BME280;63200;48.810;12.352;2023-02-15T00:43:25;98985.97;;;-1.98;82.11
74675;BME280;63200;48.810;12.352;2023-02-15T00:45:50;99007.97;;;-1.80;82.08
74675;BME280;63200;48.810;12.352;2023-02-15T00:48:16;99005.78;;;-1.76;81.98
74675;BME280;63200;48.810;12.352;2023-02-15T00:50:41;98974.00;;;-1.94;81.84
74675;BME280;63200;48.810;12.352;2023-02-15T00:53:07;98969.34;;;-1.76;81.34
74675;BME280;63200;48.810;12.352;2023-02-15T00:55:32;98998.94;;;-1.62;81.26
74675;BME280;63200;48.810;12.352;2023-02-15T00:57:58;98998.78;;;-1.69;80.60
74675;BME280;63200;48.810;12.352;2023-02-15T01:00:24;98965.19;;;-2.03;80.83
74675;BME280;63200;48.810;12.352;2023-02-15T01:02:49;98949.56;;;-2.23;81.35
74675;BME280;63200;48.810;12.352;2023-02-15T01:05:14;98991.50;;;-1.92;81.81
74675;BME280;63200;48.810;12.352;2023-02-15T01:07:40;98934.75;;;-2.33;81.82
74675;BME280;63200;48.810;12.352;2023-02-15T01:10:06;98994.78;;;-1.57;81.25
74675;BME280;63200;48.810;12.352;2023-02-15T01:12:32;98976.00;;;-1.72;80.64
74675;BME280;63200;48.810;12.352;2023-02-15T01:14:57;98948.56;;;-1.97;80.41
74675;BME280;63200;48.810;12.352;2023-02-15T01:17:23;98983.31;;;-1.90;81.32
74675;BME280;63200;48.810;12.352;2023-02-15T01:19:48;98981.00;;;-1.85;81.52
74675;BME280;63200;48.810;12.352;2023-02-15T01:22:13;98978.50;;;-1.78;81.49
74675;BME280;63200;48.810;12.352;2023-02-15T01:24:39;98973.81;;;-1.76;81.70
74675;BME280;63200;48.810;12.352;2023-02-15T01:27:04;98971.16;;;-1.76;81.28
74675;BME280;63200;48.810;12.352;2023-02-15T01:29:29;98900.50;;;-2.28;80.70
74675;BME280;63200;48.810;12.352;2023-02-15T01:31:55;98946.41;;;-2.10;81.22
74675;BME280;63200;48.810;12.352;2023-02-15T01:34:20;98955.69;;;-1.97;81.31
74675;BME280;63200;48.810;12.352;2023-02-15T01:36:45;98969.00;;;-1.73;81.32
74675;BME280;63200;48.810;12.352;2023-02-15T01:39:10;98965.50;;;-1.65;79.99
74675;BME280;63200;48.810;12.352;2023-02-15T01:41:36;98958.69;;;-1.92;80.63
74675;BME280;63200;48.810;12.352;2023-02-15T01:44:02;98965.69;;;-1.99;80.81
74675;BME280;63200;48.810;12.352;2023-02-15T01:46:51;98930.75;;;-2.29;81.21
74675;BME280;63200;48.810;12.352;2023-02-15T01:49:20;98950.72;;;-2.17;81.68
74675;BME280;63200;48.810;12.352;2023-02-15T01:51:50;98926.28;;;-2.21;82.02
74675;BME280;63200;48.810;12.352;2023-02-15T01:54:22;98956.06;;;-2.09;81.64
74675;BME280;63200;48.810;12.352;2023-02-15T01:56:52;98933.41;;;-2.21;81.85
74675;BME280;63200;48.810;12.352;2023-02-15T01:59:21;98942.72;;;-2.01;82.30
74675;BME280;63200;48.810;12.352;2023-02-15T02:01:49;98949.06;;;-2.02;82.28
74675;BME280;63200;48.810;12.352;2023-02-15T02:04:17;98939.91;;;-1.99;81.67
74675;BME280;63200;48.810;12.352;2023-02-15T02:06:46;98899.34;;;-2.18;81.80
74675;BME280;63200;48.810;12.352;2023-02-15T02:09:13;98873.53;;;-2.17;80.59
74675;BME280;63200;48.810;12.352;2023-02-15T02:11:39;98879.38;;;-2.13;79.97
74675;BME280;63200;48.810;12.352;2023-02-15T02:14:05;98921.28;;;-2.15;80.88
74675;BME280;63200;48.810;12.352;2023-02-15T02:16:41;98902.00;;;-2.18;80.86
74675;BME280;63200;48.810;12.352;2023-02-15T02:19:51;98916.94;;;-2.08;80.85
74675;BME280;63200;48.810;12.352;2023-02-15T02:28:49;98904.63;;;-2.09;81.14
74675;BME280;63200;48.810;12.352;2023-02-15T02:33:51;98905.81;;;-2.28;81.35
74675;BME280;63200;48.810;12.352;2023-02-15T02:41:38;98903.47;;;-2.40;81.40
74675;BME280;63200;48.810;12.352;2023-02-15T02:44:26;98852.28;;;-2.66;81.37
74675;BME280;63200;48.810;12.352;2023-02-15T02:46:59;98896.84;;;-2.44;81.10
74675;BME280;63200;48.810;12.352;2023-02-15T02:49:32;98897.69;;;-2.43;81.81
74675;BME280;63200;48.810;12.352;2023-02-15T02:52:03;98911.28;;;-2.38;81.61
74675;BME280;63200;48.810;12.352;2023-02-15T02:54:29;98902.84;;;-2.42;81.52
74675;BME280;63200;48.810;12.352;2023-02-15T02:56:59;98882.38;;;-2.41;81.96
74675;BME280;63200;48.810;12.352;2023-02-15T02:59:33;98899.00;;;-2.14;81.27
74675;BME280;63200;48.810;12.352;2023-02-15T03:02:11;98848.47;;;-2.47;81.19
74675;BME280;63200;48.810;12.352;2023-02-15T03:04:41;98897.50;;;-2.17;81.01
74675;BME280;63200;48.810;12.352;2023-02-15T03:07:16;98889.03;;;-2.12;79.78
74675;BME280;63200;48.810;12.352;2023-02-15T03:09:49;98896.66;;;-2.42;80.31
74675;BME280;63200;48.810;12.352;2023-02-15T03:12:19;98882.03;;;-2.38;80.47
74675;BME280;63200;48.810;12.352;2023-02-15T03:14:48;98819.53;;;-2.83;80.29
74675;BME280;63200;48.810;12.352;2023-02-15T03:17:17;98877.22;;;-2.51;81.22
74675;BME280;63200;48.810;12.352;2023-02-15T03:19:45;98876.56;;;-2.53;81.44
74675;BME280;63200;48.810;12.352;2023-02-15T03:22:15;98882.53;;;-2.43;81.94
74675;BME280;63200;48.810;12.352;2023-02-15T03:24:53;98849.97;;;-2.61;81.60
74675;BME280;63200;48.810;12.352;2023-02-15T03:27:24;98857.78;;;-2.35;81.09
74675;BME280;63200;48.810;12.352;2023-02-15T03:29:54;98883.22;;;-2.24;80.50
74675;BME280;63200;48.810;12.352;2023-02-15T03:32:21;98853.78;;;-2.47;80.82
74675;BME280;63200;48.810;12.352;2023-02-15T03:34:48;98877.06;;;-2.49;80.89
74675;BME280;63200;48.810;12.352;2023-02-15T03:40:32;98853.09;;;-2.66;81.60
74675;BME280;63200;48.810;12.352;2023-02-15T03:43:35;98893.19;;;-2.35;80.92
74675;BME280;63200;48.810;12.352;2023-02-15T03:46:08;98872.09;;;-2.53;81.12
74675;BME280;63200;48.810;12.352;2023-02-15T03:48:40;98868.75;;;-2.30;80.80
74675;BME280;63200;48.810;12.352;2023-02-15T03:51:14;98883.38;;;-2.42;81.25
74675;BME280;63200;48.810;12.352;2023-02-15T03:54:06;98862.25;;;-2.69;81.63
74675;BME280;63200;48.810;12.352;2023-02-15T03:56:38;98887.34;;;-2.46;81.58
74675;BME280;63200;48.810;12.352;2023-02-15T03:59:05;98874.56;;;-2.59;81.99
74675;BME280;63200;48.810;12.352;2023-02-15T04:02:09;98872.41;;;-2.31;80.89
74675;BME280;63200;48.810;12.352;2023-02-15T04:04:37;98896.00;;;-2.36;81.72
74675;BME280;63200;48.810;12.352;2023-02-15T04:07:05;98905.31;;;-2.32;81.50
74675;BME280;63200;48.810;12.352;2023-02-15T04:09:31;98896.50;;;-2.24;81.10
74675;BME280;63200;48.810;12.352;2023-02-15T04:12:15;98888.84;;;-2.52;81.33
74675;BME280;63200;48.810;12.352;2023-02-15T04:14:40;98894.69;;;-2.40;82.02
74675;BME280;63200;48.810;12.352;2023-02-15T04:17:24;98895.50;;;-2.15;81.08
74675;BME280;63200;48.810;12.352;2023-02-15T04:19:49;98889.22;;;-2.22;80.75
74675;BME280;63200;48.810;12.352;2023-02-15T04:22:33;98891.19;;;-2.24;81.07
74675;BME280;63200;48.810;12.352;2023-02-15T04:25:16;98883.53;;;-2.44;81.21
74675;BME280;63200;48.810;12.352;2023-02-15T04:27:51;98884.34;;;-2.52;82.06
74675;BME280;63200;48.810;12.352;2023-02-15T04:30:19;98887.88;;;-2.18;81.31
74675;BME280;63200;48.810;12.352;2023-02-15T04:32:45;98852.31;;;-2.50;80.88
74675;BME280;63200;48.810;12.352;2023-02-15T04:35:11;98884.38;;;-2.35;81.46
74675;BME280;63200;48.810;12.352;2023-02-15T04:37:37;98853.63;;;-2.46;81.15
74675;BME280;63200;48.810;12.352;2023-02-15T04:40:03;98889.88;;;-2.28;81.39
74675;BME280;63200;48.810;12.352;2023-02-15T04:42:29;98886.19;;;-2.44;81.79
74675;BME280;63200;48.810;12.352;2023-02-15T04:44:54;98884.38;;;-2.35;82.23
74675;BME280;63200;48.810;12.352;2023-02-15T04:47:20;98885.19;;;-2.10;81.35
74675;BME280;63200;48.810;12.352;2023-02-15T04:49:46;98885.38;;;-2.11;80.42
74675;BME280;63200;48.810;12.352;2023-02-15T04:52:11;98886.53;;;-2.39;80.97
74675;BME280;63200;48.810;12.352;2023-02-15T04:54:37;98785.13;;;-3.10;81.54
74675;BME280;63200;48.810;12.352;2023-02-15T04:57:04;98890.84;;;-2.54;81.75
74675;BME280;63200;48.810;12.352;2023-02-15T04:59:29;98873.88;;;-2.78;82.23
74675;BME280;63200;48.810;12.352;2023-02-15T05:01:55;98846.63;;;-2.88;82.05
74675;BME280;63200;48.810;12.352;2023-02-15T05:04:20;98880.72;;;-2.59;82.37
74675;BME280;63200;48.810;12.352;2023-02-15T05:06:45;98881.88;;;-2.61;82.21
74675;BME280;63200;48.810;12.352;2023-02-15T05:09:11;98876.03;;;-2.57;82.19
74675;BME280;63200;48.810;12.352;2023-02-15T05:11:37;98885.38;;;-2.44;82.72
74675;BME280;63200;48.810;12.352;2023-02-15T05:14:02;98892.19;;;-2.42;82.55
74675;BME280;63200;48.810;12.352;2023-02-15T05:16:28;98891.50;;;-2.36;82.50
74675;BME280;63200;48.810;12.352;2023-02-15T05:18:53;98893.84;;;-2.32;82.12
74675;BME280;63200;48.810;12.352;2023-02-15T05:21:18;98894.69;;;-2.32;82.39
74675;BME280;63200;48.810;12.352;2023-02-15T05:23:44;98859.59;;;-2.52;82.38
74675;BME280;63200;48.810;12.352;2023-02-15T05:26:16;98869.91;;;-2.32;82.07
74675;BME280;63200;48.810;12.352;2023-02-15T05:29:01;98882.69;;;-2.28;82.26
74675;BME280;63200;48.810;12.352;2023-02-15T05:31:26;98891.19;;;-2.24;82.00
74675;BME280;63200;48.810;12.352;2023-02-15T05:33:51;98893.50;;;-2.21;81.86
74675;BME280;63200;48.810;12.352;2023-02-15T05:36:17;98898.19;;;-2.31;81.77
74675;BME280;63200;48.810;12.352;2023-02-15T05:38:42;98895.84;;;-2.35;82.47
74675;BME280;63200;48.810;12.352;2023-02-15T05:41:09;98868.75;;;-2.46;81.92
74675;BME280;63200;48.810;12.352;2023-02-15T05:43:35;98886.53;;;-2.39;81.71
74675;BME280;63200;48.810;12.352;2023-02-15T05:46:00;98905.34;;;-2.15;81.35
74675;BME280;63200;48.810;12.352;2023-02-15T05:48:27;98912.31;;;-2.31;81.56
74675;BME280;63200;48.810;12.352;2023-02-15T05:51:07;98911.50;;;-2.31;81.42
74675;BME280;63200;48.810;12.352;2023-02-15T05:53:35;98899.00;;;-2.31;81.82
74675;BME280;63200;48.810;12.352;2023-02-15T05:56:01;98903.81;;;-2.35;82.21
74675;BME280;63200;48.810;12.352;2023-02-15T05:58:32;98904.31;;;-2.72;81.88
74675;BME280;63200;48.810;12.352;2023-02-15T06:00:58;98883.66;;;-2.87;82.19
74675;BME280;63200;48.810;12.352;2023-02-15T06:03:24;98904.94;;;-2.70;82.58
74675;BME280;63200;48.810;12.352;2023-02-15T06:05:51;98903.47;;;-2.56;82.12
74675;BME280;63200;48.810;12.352;2023-02-15T06:08:16;98896.31;;;-2.56;81.25
74675;BME280;63200;48.810;12.352;2023-02-15T06:10:41;98889.50;;;-2.66;81.62
74675;BME280;63200;48.810;12.352;2023-02-15T06:13:07;98909.63;;;-2.47;81.33
74675;BME280;63200;48.810;12.352;2023-02-15T06:15:32;98917.94;;;-2.42;81.14
74675;BME280;63200;48.810;12.352;2023-02-15T06:17:58;98919.94;;;-2.53;80.96
74675;BME280;63200;48.810;12.352;2023-02-15T06:20:24;98920.13;;;-2.46;80.83
74675;BME280;63200;48.810;12.352;2023-02-15T06:22:49;98915.78;;;-2.47;81.25
74675;BME280;63200;48.810;12.352;2023-02-15T06:25:14;98897.69;;;-2.35;80.54
74675;BME280;63200;48.810;12.352;2023-02-15T06:27:43;98922.78;;;-2.46;80.82
74675;BME280;63200;48.810;12.352;2023-02-15T06:30:09;98923.59;;;-2.45;81.18
74675;BME280;63200;48.810;12.352;2023-02-15T06:32:35;98934.41;;;-2.47;81.22
74675;BME280;63200;48.810;12.352;2023-02-15T06:35:00;98926.91;;;-2.52;81.92
74675;BME280;63200;48.810;12.352;2023-02-15T06:37:26;98926.25;;;-2.45;81.25
74675;BME280;63200;48.810;12.352;2023-02-15T06:39:51;98910.47;;;-2.55;81.00
74675;BME280;63200;48.810;12.352;2023-02-15T06:42:17;98915.13;;;-2.57;81.49
74675;BME280;63200;48.810;12.352;2023-02-15T06:44:43;98929.41;;;-2.58;81.49
74675;BME280;63200;48.810;12.352;2023-02-15T06:47:09;98930.38;;;-2.68;81.49
74675;BME280;63200;48.810;12.352;2023-02-15T06:49:34;98907.44;;;-2.69;81.37
74675;BME280;63200;48.810;12.352;2023-02-15T06:51:59;98935.75;;;-2.51;81.54
74675;BME280;63200;48.810;12.352;2023-02-15T06:54:24;98934.25;;;-2.54;81.36
74675;BME280;63200;48.810;12.352;2023-02-15T06:56:50;98909.63;;;-2.64;81.63
74675;BME280;63200;48.810;12.352;2023-02-15T06:59:15;98934.91;;;-2.43;81.70
74675;BME280;63200;48.810;12.352;2023-02-15T07:01:40;98907.31;;;-2.59;81.14
74675;BME280;63200;48.810;12.352;2023-02-15T07:04:06;98925.91;;;-2.42;81.63
74675;BME280;63200;48.810;12.352;2023-02-15T07:06:34;98900.00;;;-2.48;81.59
74675;BME280;63200;48.810;12.352;2023-02-15T07:08:59;98935.56;;;-2.33;81.46
74675;BME280;63200;48.810;12.352;2023-02-15T07:11:25;98904.16;;;-2.29;81.26
74675;BME280;63200;48.810;12.352;2023-02-15T07:14:09;98914.44;;;-2.02;80.12
74675;BME280;63200;48.810;12.352;2023-02-15T07:16:34;98936.56;;;-2.09;79.67
74675;BME280;63200;48.810;12.352;2023-02-15T07:18:59;98901.34;;;-2.53;80.47
74675;BME280;63200;48.810;12.352;2023-02-15T07:21:25;98905.66;;;-2.35;80.49
74675;BME280;63200;48.810;12.352;2023-02-15T07:23:50;98914.63;;;-2.44;81.06
74675;BME280;63200;48.810;12.352;2023-02-15T07:26:15;98909.97;;;-2.42;80.78
74675;BME280;63200;48.810;12.352;2023-02-15T07:28:41;98902.00;;;-2.34;80.63
74675;BME280;63200;48.810;12.352;2023-02-15T07:31:06;98906.31;;;-2.16;80.29
74675;BME280;63200;48.810;12.352;2023-02-15T07:33:33;98927.59;;;-2.08;78.69
74675;BME280;63200;48.810;12.352;2023-02-15T07:36:00;98929.44;;;-2.25;78.27
74675;BME280;63200;48.810;12.352;2023-02-15T07:38:30;98855.59;;;-2.73;79.51
74675;BME280;63200;48.810;12.352;2023-02-15T07:41:00;98917.94;;;-2.51;80.54
74675;BME280;63200;48.810;12.352;2023-02-15T07:43:26;98918.13;;;-2.27;80.35
74675;BME280;63200;48.810;12.352;2023-02-15T07:45:51;98913.47;;;-2.50;80.10
74675;BME280;63200;48.810;12.352;2023-02-15T07:48:17;98914.81;;;-2.46;81.12
74675;BME280;63200;48.810;12.352;2023-02-15T07:50:42;98912.13;;;-2.29;80.67
74675;BME280;63200;48.810;12.352;2023-02-15T07:53:08;98916.63;;;-2.13;80.32
74675;BME280;63200;48.810;12.352;2023-02-15T07:55:33;98908.13;;;-2.01;79.63
74675;BME280;63200;48.810;12.352;2023-02-15T07:57:58;98881.38;;;-2.32;79.63
74675;BME280;63200;48.810;12.352;2023-02-15T08:00:24;98896.03;;;-2.20;79.77
74675;BME280;63200;48.810;12.352;2023-02-15T08:02:54;98897.69;;;-2.10;79.33
74675;BME280;63200;48.810;12.352;2023-02-15T08:05:40;98910.47;;;-2.14;79.25
74675;BME280;63200;48.810;12.352;2023-02-15T08:08:06;98914.47;;;-2.10;79.73
74675;BME280;63200;48.810;12.352;2023-02-15T08:10:32;98918.28;;;-2.12;80.19
74675;BME280;63200;48.810;12.352;2023-02-15T08:13:16;98920.44;;;-2.08;79.70
74675;BME280;63200;48.810;12.352;2023-02-15T08:15:50;98912.97;;;-2.12;79.79
74675;BME280;63200;48.810;12.352;2023-02-15T08:18:15;98842.47;;;-2.66;80.17
74675;BME280;63200;48.810;12.352;2023-02-15T08:20:41;98919.59;;;-2.00;79.81
74675;BME280;63200;48.810;12.352;2023-02-15T08:23:06;98910.78;;;-2.01;79.98
74675;BME280;63200;48.810;12.352;2023-02-15T08:25:32;98915.97;;;-2.15;80.04
74675;BME280;63200;48.810;12.352;2023-02-15T08:27:57;98926.09;;;-2.36;81.02
74675;BME280;63200;48.810;12.352;2023-02-15T08:30:22;98915.94;;;-1.91;80.54
74675;BME280;63200;48.810;12.352;2023-02-15T08:32:48;98922.09;;;-1.90;80.33
74675;BME280;63200;48.810;12.352;2023-02-15T08:35:13;98890.34;;;-2.08;80.12
74675;BME280;63200;48.810;12.352;2023-02-15T08:37:38;98913.28;;;-1.91;79.89
74675;BME280;63200;48.810;12.352;2023-02-15T08:40:04;98925.75;;;-2.08;80.77
74675;BME280;63200;48.810;12.352;2023-02-15T08:42:32;98885.84;;;-2.16;80.70
74675;BME280;63200;48.810;12.352;2023-02-15T08:44:58;98925.94;;;-2.09;80.66
74675;BME280;63200;48.810;12.352;2023-02-15T08:47:23;98924.78;;;-2.15;81.21
74675;BME280;63200;48.810;12.352;2023-02-15T08:49:48;98937.56;;;-2.19;81.15
74675;BME280;63200;48.810;12.352;2023-02-15T08:52:14;98932.94;;;-2.25;80.92
74675;BME280;63200;48.810;12.352;2023-02-15T08:54:39;98934.09;;;-2.19;81.01
74675;BME280;63200;48.810;12.352;2023-02-15T08:57:04;98930.63;;;-2.20;80.87
74675;BME280;63200;48.810;12.352;2023-02-15T08:59:32;98921.75;;;-1.87;80.91
74675;BME280;63200;48.810;12.352;2023-02-15T09:01:57;98927.50;;;-1.51;79.21
74675;BME280;63200;48.810;12.352;2023-02-15T09:04:22;98893.22;;;-1.54;77.82
74675;BME280;63200;48.810;12.352;2023-02-15T09:06:48;98898.91;;;-1.65;77.83
74675;BME280;63200;48.810;12.352;2023-02-15T09:09:14;98840.94;;;-2.11;78.09
74675;BME280;63200;48.810;12.352;2023-02-15T09:11:42;98878.50;;;-1.97;78.44
74675;BME280;63200;48.810;12.352;2023-02-15T09:14:13;98907.94;;;-1.74;78.86
74675;BME280;63200;48.810;12.352;2023-02-15T09:16:39;98893.28;;;-1.78;79.21
74675;BME280;63200;48.810;12.352;2023-02-15T09:19:05;98897.59;;;-1.69;79.70
74675;BME280;63200;48.810;12.352;2023-02-15T09:21:33;98897.28;;;-1.74;80.42
74675;BME280;63200;48.810;12.352;2023-02-15T09:24:00;98902.25;;;-1.71;80.51
74675;BME280;63200;48.810;12.352;2023-02-15T09:26:28;98899.94;;;-1.74;80.46
74675;BME280;63200;48.810;12.352;2023-02-15T09:28:56;98888.13;;;-1.72;80.71
74675;BME280;63200;48.810;12.352;2023-02-15T09:31:25;98889.25;;;-1.66;80.78
74675;BME280;63200;48.810;12.352;2023-02-15T09:33:51;98889.59;;;-1.61;80.55
74675;BME280;63200;48.810;12.352;2023-02-15T09:36:22;98892.88;;;-1.51;80.12
74675;BME280;63200;48.810;12.352;2023-02-15T09:38:55;98893.34;;;-1.47;80.05
74675;BME280;63200;48.810;12.352;2023-02-15T09:44:06;98901.41;;;-1.15;77.09
74675;BME280;63200;48.810;12.352;2023-02-15T09:52:21;98904.47;;;-1.27;78.21
74675;BME280;63200;48.810;12.352;2023-02-15T09:54:55;98920.13;;;-1.32;78.59
74675;BME280;63200;48.810;12.352;2023-02-15T09:57:27;98916.25;;;-1.21;78.54
74675;BME280;63200;48.810;12.352;2023-02-15T10:23:05;98919.81;;;-0.97;76.77
74675;BME280;63200;48.810;12.352;2023-02-15T10:28:27;98900.94;;;-1.27;77.25
74675;BME280;63200;48.810;12.352;2023-02-15T10:33:40;98893.28;;;-0.91;76.98
74675;BME280;63200;48.810;12.352;2023-02-15T10:36:15;98894.84;;;-0.73;75.67
74675;BME280;63200;48.810;12.352;2023-02-15T10:41:28;98891.56;;;-0.84;75.57
74675;BME280;63200;48.810;12.352;2023-02-15T10:44:18;98888.13;;;-0.69;76.16
74675;BME280;63200;48.810;12.352;2023-02-15T10:47:09;98888.38;;;-0.56;73.69
74675;BME280;63200;48.810;12.352;2023-02-15T10:50:03;98887.84;;;-0.74;75.34
74675;BME280;63200;48.810;12.352;2023-02-15T11:00:18;98875.97;;;-0.95;75.97
74675;BME280;63200;48.810;12.352;2023-02-15T11:08:29;98872.25;;;-0.86;76.57
74675;BME280;63200;48.810;12.352;2023-02-15T11:11:00;98876.75;;;-0.86;76.31
74675;BME280;63200;48.810;12.352;2023-02-15T11:13:34;98850.81;;;-0.92;76.87
74675;BME280;63200;48.810;12.352;2023-02-15T11:16:29;98864.22;;;-0.54;76.66
74675;BME280;63200;48.810;12.352;2023-02-15T11:19:06;98858.31;;;-0.49;74.53
74675;BME280;63200;48.810;12.352;2023-02-15T11:21:42;98805.94;;;-0.65;74.08
74675;BME280;63200;48.810;12.352;2023-02-15T11:24:19;98815.00;;;-0.52;74.62
74675;BME280;63200;48.810;12.352;2023-02-15T11:26:57;98804.44;;;-0.68;74.85
74675;BME280;63200;48.810;12.352;2023-02-15T11:37:18;98826.44;;;-0.89;76.21
74675;BME280;63200;48.810;12.352;2023-02-15T11:39:45;98843.56;;;-0.60;77.10
74675;BME280;63200;48.810;12.352;2023-02-15T11:42:19;98828.97;;;-0.49;77.35
74675;BME280;63200;48.810;12.352;2023-02-15T11:47:38;98836.59;;;-0.46;76.51
74675;BME280;63200;48.810;12.352;2023-02-15T11:50:03;98822.50;;;-0.70;76.94
74675;BME280;63200;48.810;12.352;2023-02-15T11:52:29;98822.53;;;-0.55;76.95
74675;BME280;63200;48.810;12.352;2023-02-15T11:54:54;98830.41;;;-0.62;76.56
74675;BME280;63200;48.810;12.352;2023-02-15T11:57:26;98728.59;;;-0.89;75.41
74675;BME280;63200;48.810;12.352;2023-02-15T12:00:10;98809.41;;;-0.27;74.01
74675;BME280;63200;48.810;12.352;2023-02-15T12:02:38;98761.50;;;-0.58;75.09
74675;BME280;63200;48.810;12.352;2023-02-15T12:05:13;98808.03;;;-0.38;75.36
74675;BME280;63200;48.810;12.352;2023-02-15T12:08:01;98809.22;;;-0.40;75.90
74675;BME280;63200;48.810;12.352;2023-02-15T12:10:34;98808.09;;;-0.46;75.54
74675;BME280;63200;48.810;12.352;2023-02-15T12:13:16;98757.75;;;-0.64;74.93
74675;BME280;63200;48.810;12.352;2023-02-15T12:15:45;98757.75;;;-0.64;74.99
74675;BME280;63200;48.810;12.352;2023-02-15T12:20:46;98798.97;;;0.02;73.15
74675;BME280;63200;48.810;12.352;2023-02-15T12:23:14;98789.47;;;-0.16;74.04
74675;BME280;63200;48.810;12.352;2023-02-15T12:25:51;98779.78;;;-0.32;74.17
74675;BME280;63200;48.810;12.352;2023-02-15T12:28:36;98789.16;;;-0.36;75.44
74675;BME280;63200;48.810;12.352;2023-02-15T12:31:09;98783.94;;;-0.29;74.58
74675;BME280;63200;48.810;12.352;2023-02-15T12:33:39;98780.31;;;-0.52;75.02
74675;BME280;63200;48.810;12.352;2023-02-15T12:36:51;98783.91;;;-0.44;75.79
74675;BME280;63200;48.810;12.352;2023-02-15T12:39:04;98771.63;;;-0.30;75.77
74675;BME280;63200;48.810;12.352;2023-02-15T12:41:30;98770.13;;;-0.33;74.85
74675;BME280;63200;48.810;12.352;2023-02-15T12:44:05;98766.25;;;-0.45;76.22
74675;BME280;63200;48.810;12.352;2023-02-15T12:46:31;98710.09;;;-0.82;76.64
74675;BME280;63200;48.810;12.352;2023-02-15T12:49:17;98763.03;;;-0.26;74.40
74675;BME280;63200;48.810;12.352;2023-02-15T12:51:54;98752.81;;;-0.37;74.30
74675;BME280;63200;48.810;12.352;2023-02-15T12:56:58;98757.59;;;-0.86;77.52
74675;BME280;63200;48.810;12.352;2023-02-15T12:59:24;98759.94;;;-0.68;77.38
74675;BME280;63200;48.810;12.352;2023-02-15T13:01:52;98694.50;;;-0.93;76.75
74675;BME280;63200;48.810;12.352;2023-02-15T13:04:26;98725.72;;;-0.64;76.63
74675;BME280;63200;48.810;12.352;2023-02-15T13:06:54;98750.81;;;-0.35;76.83
74675;BME280;63200;48.810;12.352;2023-02-15T13:09:36;98701.38;;;-0.61;77.19
74675;BME280;63200;48.810;12.352;2023-02-15T13:12:17;98741.59;;;-0.18;76.27
74675;BME280;63200;48.810;12.352;2023-02-15T13:14:48;98715.66;;;-0.09;75.29
74675;BME280;63200;48.810;12.352;2023-02-15T13:17:19;98729.53;;;-0.13;76.01
74675;BME280;63200;48.810;12.352;2023-02-15T13:19:50;98702.41;;;-0.47;75.36
74675;BME280;63200;48.810;12.352;2023-02-15T13:22:20;98696.88;;;-0.45;76.16
74675;BME280;63200;48.810;12.352;2023-02-15T13:24:50;98730.19;;;-0.11;74.65
74675;BME280;63200;48.810;12.352;2023-02-15T13:27:20;98728.91;;;-0.15;75.03
74675;BME280;63200;48.810;12.352;2023-02-15T13:29:51;98728.25;;;-0.18;74.17
74675;BME280;63200;48.810;12.352;2023-02-15T13:32:28;98732.78;;;-0.18;74.74
74675;BME280;63200;48.810;12.352;2023-02-15T13:34:58;98725.75;;;-0.49;75.35
74675;BME280;63200;48.810;12.352;2023-02-15T13:40:08;98734.31;;;-0.39;76.54
74675;BME280;63200;48.810;12.352;2023-02-15T13:45:39;98723.19;;;-0.27;76.03
74675;BME280;63200;48.810;12.352;2023-02-15T13:55:52;98713.00;;;-0.24;76.80
74675;BME280;63200;48.810;12.352;2023-02-15T14:01:11;98705.91;;;-0.31;75.71
74675;BME280;63200;48.810;12.352;2023-02-15T14:10:02;98707.28;;;-0.21;75.34
74675;BME280;63200;48.810;12.352;2023-02-15T14:12:13;98700.28;;;-0.22;74.45
74675;BME280;63200;48.810;12.352;2023-02-15T14:20:24;98687.94;;;-0.53;76.53
74675;BME280;63200;48.810;12.352;2023-02-15T14:23:04;98645.63;;;-0.86;76.49
74675;BME280;63200;48.810;12.352;2023-02-15T14:25:46;98659.56;;;-0.84;77.01
74675;BME280;63200;48.810;12.352;2023-02-15T14:28:26;98697.34;;;-0.42;77.04
74675;BME280;63200;48.810;12.352;2023-02-15T14:30:55;98674.09;;;-0.86;76.56
74675;BME280;63200;48.810;12.352;2023-02-15T14:33:35;98698.38;;;-0.81;77.23
74675;BME280;63200;48.810;12.352;2023-02-15T14:36:04;98713.47;;;-0.73;77.25
74675;BME280;63200;48.810;12.352;2023-02-15T14:41:20;98709.41;;;-0.84;77.70
74675;BME280;63200;48.810;12.352;2023-02-15T14:44:15;98698.75;;;-0.84;77.57
74675;BME280;63200;48.810;12.352;2023-02-15T14:49:26;98685.59;;;-0.86;78.12
74675;BME280;63200;48.810;12.352;2023-02-15T14:51:56;98643.84;;;-0.93;77.63
74675;BME280;63200;48.810;12.352;2023-02-15T14:59:40;98694.28;;;-0.39;74.41
74675;BME280;63200;48.810;12.352;2023-02-15T15:04:35;98703.56;;;-0.64;77.40
74675;BME280;63200;48.810;12.352;2023-02-15T15:07:20;98698.97;;;-0.56;77.17
74675;BME280;63200;48.810;12.352;2023-02-15T15:10:03;98704.44;;;-0.34;76.16
74675;BME280;63200;48.810;12.352;2023-02-15T15:15:00;98676.28;;;-0.52;74.95